KUGN/UGN METAR and TAF weather

Enter ICAO airport designator
Station Type Date Time Source
KUGN METAR 2022/11/27 08:55 UTC NOAA

KUGN 270855Z AUTO 00000KT 10SM CLR 04/00 A2960 RMK AO2 SLP026 T00390000 56035


Station Type Date Time Source
KUGN Decoded METAR 2022/11/27 08:55 UTC NOAA

CHICAGO/WAUKEGAN REGIONAL, IL, United States (KUGN) 42-25N 087-52W
Nov 27, 2022 - 03:55 AM EST / 2022.11.27 0855 UTC
Wind: Calm:0
Visibility: 10 mile(s):0
Sky conditions: clear
Temperature: 39.0 F (3.9 C)
Dew Point: 32.0 F (0.0 C)
Relative Humidity: 75%
Pressure (altimeter): 29.6 in. Hg (1002 hPa)
Pressure tendency: 0.10 inches (3.5 hPa) lower than three hours ago
ob: KUGN 270855Z AUTO 00000KT 10SM CLR 04/00 A2960 RMK AO2 SLP026 T00390000 56035
cycle: 9

Station Type Date Time Source
KUGN TAF UTC NOAA

Error!

Example: see airport list